sim
Sign-in with your pilot id or email,
or register
Callsign
Passwort

Schedule Details

Flight Number: DLH1831 (5)
Departure: Valencia Airport (LEVC) at 16:45
Arrival: Munich Airport (EDDM) at 19:05
Route: Lufthansa Passenger Schedule. Enter filed route here before submitting Pirep.

Weather Information
Getting current METAR information for LEVC 220130Z VRB02KT 9999 FEW030 20/18 Q1015 NOSIG
Getting current METAR information for EDDM 220150Z 33002KT 3000 1100N R08L/0600N R08R/0800U BCFG NSC 08/08 Q1014 TEMPO 2500

Schedule Frequency

Route Map